createdAt,value
2017-02-20T00:00:14.181Z,1017.99
2017-02-20T00:01:23.089Z,1017.99
2017-02-20T00:02:33.251Z,1017.96
2017-02-20T00:03:43.410Z,1017.97
2017-02-20T00:04:53.342Z,1017.95
2017-02-20T00:06:02.660Z,1017.95
2017-02-20T00:07:12.399Z,1017.92
2017-02-20T00:08:21.731Z,1017.91
2017-02-20T00:09:30.647Z,1017.91
2017-02-20T00:10:39.618Z,1017.88
2017-02-20T00:11:48.956Z,1017.85
2017-02-20T00:12:58.288Z,1017.86
2017-02-20T00:14:07.618Z,1017.86
2017-02-20T00:15:17.340Z,1017.91
2017-02-20T00:16:27.470Z,1017.86
2017-02-20T00:17:36.825Z,1017.88
2017-02-20T00:18:46.992Z,1017.93
2017-02-20T00:19:56.339Z,1017.96
2017-02-20T00:21:05.688Z,1017.95
2017-02-20T00:22:16.140Z,1017.94
2017-02-20T00:23:26.299Z,1017.97
2017-02-20T00:24:35.239Z,1017.92
2017-02-20T00:25:45.803Z,1017.88
2017-02-20T00:26:55.946Z,1017.9
2017-02-20T00:28:05.569Z,1017.87
2017-02-20T00:29:14.905Z,1017.87
2017-02-20T00:30:25.043Z,1017.87
2017-02-20T00:31:34.778Z,1017.88
2017-02-20T00:32:44.108Z,1017.88
2017-02-20T00:33:53.583Z,1017.89
2017-02-20T00:35:02.916Z,1017.88
2017-02-20T00:36:13.049Z,1017.91
2017-02-20T00:37:22.362Z,1017.92
2017-02-20T00:38:32.518Z,1017.88
2017-02-20T00:39:42.692Z,1017.86
2017-02-20T00:40:51.604Z,1017.82
2017-02-20T00:42:00.961Z,1017.8
2017-02-20T00:43:10.715Z,1017.71
2017-02-20T00:44:20.844Z,1017.73
2017-02-20T00:45:30.225Z,1017.73
2017-02-20T00:46:39.557Z,1017.76
2017-02-20T00:47:48.876Z,1017.8
2017-02-20T00:48:58.211Z,1017.85
2017-02-20T00:50:07.961Z,1017.88
2017-02-20T00:51:17.408Z,1017.84
2017-02-20T00:52:26.339Z,1017.84
2017-02-20T00:53:36.513Z,1017.82
2017-02-20T00:54:45.837Z,1017.79
2017-02-20T00:55:55.976Z,1017.79
2017-02-20T00:57:05.808Z,1017.74
2017-02-20T00:58:15.144Z,1017.68
2017-02-20T00:59:24.068Z,1017.75
2017-02-20T01:00:32.999Z,1017.69
2017-02-20T01:01:43.133Z,1017.64
2017-02-20T01:02:52.804Z,1017.64
2017-02-20T01:04:02.954Z,1017.59
2017-02-20T01:05:12.277Z,1017.58
2017-02-20T01:06:21.607Z,1017.64
2017-02-20T01:07:31.351Z,1017.57
2017-02-20T01:08:40.364Z,1017.54
2017-02-20T01:09:49.681Z,1017.53
2017-02-20T01:10:59.027Z,1017.54
2017-02-20T01:12:08.788Z,1017.54
2017-02-20T01:13:18.522Z,1017.47
2017-02-20T01:14:29.140Z,1017.51
2017-02-20T01:15:38.871Z,1017.45
2017-02-20T01:16:49.415Z,1017.47
2017-02-20T01:17:59.562Z,1017.47
2017-02-20T01:19:09.298Z,1017.43
2017-02-20T01:20:19.200Z,1017.44
2017-02-20T01:21:28.144Z,1017.42
2017-02-20T01:22:37.473Z,1017.38
2017-02-20T01:23:46.813Z,1017.4
2017-02-20T01:24:56.555Z,1017.4
2017-02-20T01:26:06.291Z,1017.32
2017-02-20T01:27:16.027Z,1017.33
2017-02-20T01:28:25.769Z,1017.29
2017-02-20T01:29:35.520Z,1017.29
2017-02-20T01:30:46.088Z,1017.31
2017-02-20T01:31:56.386Z,1017.34
2017-02-20T01:33:06.148Z,1017.27
2017-02-20T01:34:15.471Z,1017.31
2017-02-20T01:35:24.800Z,1017.28
2017-02-20T01:36:34.131Z,1017.31
2017-02-20T01:37:44.829Z,1017.25
2017-02-20T01:38:54.171Z,1017.19
2017-02-20T01:40:03.122Z,1017.22
2017-02-20T01:41:12.447Z,1017.21
2017-02-20T01:42:22.189Z,1017.2
2017-02-20T01:43:32.491Z,1017.21
2017-02-20T01:44:41.849Z,1017.16
2017-02-20T01:45:51.589Z,1017.14
2017-02-20T01:47:01.735Z,1017.12
2017-02-20T01:48:11.475Z,1017.07
2017-02-20T01:49:21.266Z,1017.08
2017-02-20T01:50:30.587Z,1017.08
2017-02-20T01:51:39.924Z,1017.05
2017-02-20T01:52:49.661Z,1017.04
2017-02-20T01:53:59.801Z,1017.01
2017-02-20T01:55:09.838Z,1017.05
2017-02-20T01:56:20.009Z,1017.01
2017-02-20T01:57:29.334Z,1016.99
2017-02-20T01:58:38.256Z,1017
2017-02-20T01:59:47.574Z,1017.02
2017-02-20T02:00:57.363Z,1017.01
2017-02-20T02:02:07.105Z,1017.01
2017-02-20T02:03:16.467Z,1017.03
2017-02-20T02:04:25.819Z,1017.01
2017-02-20T02:05:35.143Z,1016.96
2017-02-20T02:06:44.220Z,1016.97
2017-02-20T02:07:54.360Z,1016.9
2017-02-20T02:09:03.692Z,1016.89
2017-02-20T02:10:13.416Z,1016.89
2017-02-20T02:11:22.757Z,1016.92
2017-02-20T02:12:31.721Z,1016.92
2017-02-20T02:13:41.469Z,1016.86
2017-02-20T02:14:51.271Z,1016.87
2017-02-20T02:16:00.603Z,1016.86
2017-02-20T02:17:10.339Z,1016.85
2017-02-20T02:18:20.077Z,1016.79
2017-02-20T02:19:30.229Z,1016.81
2017-02-20T02:20:39.554Z,1016.79
2017-02-20T02:21:49.692Z,1016.78
2017-02-20T02:22:58.625Z,1016.76
2017-02-20T02:24:07.854Z,1016.8
2017-02-20T02:25:16.795Z,1016.78
2017-02-20T02:26:26.552Z,1016.76
2017-02-20T02:27:36.288Z,1016.75
2017-02-20T02:28:45.207Z,1016.74
2017-02-20T02:29:54.634Z,1016.73
2017-02-20T02:31:04.372Z,1016.71
2017-02-20T02:32:13.702Z,1016.69
2017-02-20T02:33:22.614Z,1016.63
2017-02-20T02:34:33.166Z,1016.63
2017-02-20T02:35:42.567Z,1016.62
2017-02-20T02:36:52.290Z,1016.52
2017-02-20T02:38:01.219Z,1016.55
2017-02-20T02:39:10.956Z,1016.56
2017-02-20T02:40:19.868Z,1016.55
2017-02-20T02:41:29.862Z,1016.45
2017-02-20T02:42:39.188Z,1016.47
2017-02-20T02:43:48.511Z,1016.41
2017-02-20T02:44:58.242Z,1016.43
2017-02-20T02:46:07.984Z,1016.4
2017-02-20T02:47:17.820Z,1016.41
2017-02-20T02:48:26.740Z,1016.41
2017-02-20T02:49:36.065Z,1016.42
2017-02-20T02:50:44.985Z,1016.34
2017-02-20T02:51:54.733Z,1016.32
2017-02-20T02:53:03.854Z,1016.3
2017-02-20T02:54:14.002Z,1016.29
2017-02-20T02:55:23.330Z,1016.22
2017-02-20T02:56:32.663Z,1016.3
2017-02-20T02:57:42.410Z,1016.25
2017-02-20T02:58:51.933Z,1016.21
2017-02-20T03:00:01.682Z,1016.23
2017-02-20T03:01:11.419Z,1016.21
2017-02-20T03:02:20.752Z,1016.22
2017-02-20T03:03:30.494Z,1016.23
2017-02-20T03:04:39.609Z,1016.28
2017-02-20T03:05:48.529Z,1016.21
2017-02-20T03:06:58.278Z,1016.2
2017-02-20T03:08:07.593Z,1016.27
2017-02-20T03:09:16.511Z,1016.24
2017-02-20T03:10:25.449Z,1016.25
2017-02-20T03:11:35.178Z,1016.33
2017-02-20T03:12:44.503Z,1016.3
2017-02-20T03:13:53.831Z,1016.28
2017-02-20T03:15:03.172Z,1016.3
2017-02-20T03:16:12.978Z,1016.26
2017-02-20T03:17:22.319Z,1016.25
2017-02-20T03:18:32.058Z,1016.26
2017-02-20T03:19:42.214Z,1016.2
2017-02-20T03:20:52.365Z,1016.12
2017-02-20T03:22:03.170Z,1016.06
2017-02-20T03:23:12.084Z,1016.08
2017-02-20T03:24:21.412Z,1016.04
2017-02-20T03:25:31.695Z,1016.05
2017-02-20T03:26:41.423Z,1016.05
2017-02-20T03:27:51.739Z,1016.04
2017-02-20T03:29:01.939Z,1015.94
2017-02-20T03:30:11.287Z,1015.97
2017-02-20T03:31:21.043Z,1015.94
2017-02-20T03:32:30.382Z,1015.98
2017-02-20T03:33:39.356Z,1015.86
2017-02-20T03:34:49.083Z,1015.85
2017-02-20T03:35:58.409Z,1015.85
2017-02-20T03:37:07.346Z,1015.83
2017-02-20T03:38:17.485Z,1015.84
2017-02-20T03:39:26.889Z,1015.84
2017-02-20T03:40:36.225Z,1015.81
2017-02-20T03:41:45.567Z,1015.79
2017-02-20T03:42:55.309Z,1015.78
2017-02-20T03:44:05.047Z,1015.75
2017-02-20T03:45:14.475Z,1015.78
2017-02-20T03:46:23.816Z,1015.83
2017-02-20T03:47:33.549Z,1015.68
2017-02-20T03:48:42.870Z,1015.73
2017-02-20T03:49:51.792Z,1015.74
2017-02-20T03:51:01.272Z,1015.77
2017-02-20T03:52:11.002Z,1015.77
2017-02-20T03:53:19.926Z,1015.72
2017-02-20T03:54:28.864Z,1015.69
2017-02-20T03:55:39.015Z,1015.72
2017-02-20T03:56:48.953Z,1015.74
2017-02-20T03:57:58.275Z,1015.68
2017-02-20T03:59:08.007Z,1015.68
2017-02-20T04:00:18.150Z,1015.72
2017-02-20T04:01:27.479Z,1015.76
2017-02-20T04:02:36.420Z,1015.78
2017-02-20T04:03:45.764Z,1015.82
2017-02-20T04:04:55.093Z,1015.87
2017-02-20T04:06:04.834Z,1015.8
2017-02-20T04:07:14.573Z,1015.77
2017-02-20T04:08:24.608Z,1015.8
2017-02-20T04:09:33.942Z,1015.8
2017-02-20T04:10:43.682Z,1015.79
2017-02-20T04:11:53.418Z,1015.77
2017-02-20T04:13:03.153Z,1015.8
2017-02-20T04:14:12.987Z,1015.86
2017-02-20T04:15:21.902Z,1015.73
2017-02-20T04:16:31.667Z,1015.72
2017-02-20T04:17:41.818Z,1015.76
2017-02-20T04:18:50.731Z,1015.81
2017-02-20T04:20:00.623Z,1015.71
2017-02-20T04:21:10.382Z,1015.74
2017-02-20T04:22:19.724Z,1015.71
2017-02-20T04:23:29.071Z,1015.6
2017-02-20T04:24:38.387Z,1015.67
2017-02-20T04:25:47.479Z,1015.56
2017-02-20T04:26:56.824Z,1015.59
2017-02-20T04:28:06.151Z,1015.58
2017-02-20T04:29:15.076Z,1015.53
2017-02-20T04:30:24.407Z,1015.57
2017-02-20T04:31:33.495Z,1015.56
2017-02-20T04:32:42.855Z,1015.62
2017-02-20T04:33:53.004Z,1015.59
2017-02-20T04:35:02.754Z,1015.55
2017-02-20T04:36:12.089Z,1015.48
2017-02-20T04:37:21.472Z,1015.44
2017-02-20T04:38:30.392Z,1015.53
2017-02-20T04:39:39.741Z,1015.49
2017-02-20T04:40:49.075Z,1015.42
2017-02-20T04:41:58.824Z,1015.52
2017-02-20T04:43:08.192Z,1015.55
2017-02-20T04:44:17.944Z,1015.56
2017-02-20T04:45:27.269Z,1015.52
2017-02-20T04:46:37.013Z,1015.46
2017-02-20T04:47:46.382Z,1015.46
2017-02-20T04:48:56.132Z,1015.42
2017-02-20T04:50:05.459Z,1015.37
2017-02-20T04:51:15.211Z,1015.4
2017-02-20T04:52:24.538Z,1015.39
2017-02-20T04:53:34.281Z,1015.33
2017-02-20T04:54:44.476Z,1015.28
2017-02-20T04:55:53.794Z,1015.27
2017-02-20T04:57:03.543Z,1015.34
2017-02-20T04:58:12.889Z,1015.29
2017-02-20T04:59:21.814Z,1015.27
2017-02-20T05:00:30.770Z,1015.32
2017-02-20T05:01:39.690Z,1015.29
2017-02-20T05:02:49.464Z,1015.29
2017-02-20T05:03:58.794Z,1015.34
2017-02-20T05:05:08.128Z,1015.23
2017-02-20T05:06:18.982Z,1015.2
2017-02-20T05:07:28.733Z,1015.22
2017-02-20T05:08:38.475Z,1015.18
2017-02-20T05:09:47.803Z,1015.18
2017-02-20T05:10:57.534Z,1015.15
2017-02-20T05:12:07.029Z,1015.2
2017-02-20T05:13:16.765Z,1015.14
2017-02-20T05:14:26.525Z,1015.15
2017-02-20T05:15:35.854Z,1015.1
2017-02-20T05:16:44.770Z,1015.16
2017-02-20T05:17:53.891Z,1015.09
2017-02-20T05:19:03.629Z,1015.1
2017-02-20T05:20:13.017Z,1015.01
2017-02-20T05:21:21.938Z,1015.02
2017-02-20T05:22:31.670Z,1014.97
2017-02-20T05:23:40.736Z,1015.05
2017-02-20T05:24:50.084Z,1014.99
2017-02-20T05:25:59.417Z,1014.88
2017-02-20T05:27:08.332Z,1014.93
2017-02-20T05:28:18.894Z,1014.88
2017-02-20T05:29:28.677Z,1014.88
2017-02-20T05:30:37.604Z,1014.84
2017-02-20T05:31:47.761Z,1014.78
2017-02-20T05:32:57.100Z,1014.76
2017-02-20T05:34:07.657Z,1014.78
2017-02-20T05:35:17.102Z,1014.77
2017-02-20T05:36:26.423Z,1014.65
2017-02-20T05:37:35.345Z,1014.71
2017-02-20T05:38:44.684Z,1014.77
2017-02-20T05:39:54.409Z,1014.84
2017-02-20T05:41:04.000Z,1014.77
2017-02-20T05:42:12.923Z,1014.81
2017-02-20T05:43:21.866Z,1014.83
2017-02-20T05:44:31.180Z,1014.8
2017-02-20T05:45:40.915Z,1014.79
2017-02-20T05:46:50.289Z,1014.74
2017-02-20T05:47:59.205Z,1014.78
2017-02-20T05:49:08.130Z,1014.79
2017-02-20T05:50:17.058Z,1014.77
2017-02-20T05:51:26.410Z,1014.75
2017-02-20T05:52:35.839Z,1014.76
2017-02-20T05:53:45.578Z,1014.73
2017-02-20T05:54:54.495Z,1014.7
2017-02-20T05:56:04.233Z,1014.68
2017-02-20T05:57:13.550Z,1014.66
2017-02-20T05:58:23.443Z,1014.66
2017-02-20T05:59:32.356Z,1014.67
2017-02-20T06:00:42.956Z,1014.69
2017-02-20T06:01:52.288Z,1014.61
2017-02-20T06:03:02.036Z,1014.67
2017-02-20T06:04:11.361Z,1014.59
2017-02-20T06:05:20.690Z,1014.52
2017-02-20T06:06:30.024Z,1014.47
2017-02-20T06:07:39.755Z,1014.41
2017-02-20T06:08:48.678Z,1014.37
2017-02-20T06:09:58.410Z,1014.45
2017-02-20T06:11:08.138Z,1014.32
2017-02-20T06:12:17.468Z,1014.38
2017-02-20T06:13:26.800Z,1014.34
2017-02-20T06:14:36.937Z,1014.34
2017-02-20T06:15:46.282Z,1014.37
2017-02-20T06:16:56.040Z,1014.43
2017-02-20T06:18:05.780Z,1014.47
2017-02-20T06:19:15.923Z,1014.38
2017-02-20T06:20:25.669Z,1014.47
2017-02-20T06:21:35.040Z,1014.34
2017-02-20T06:22:43.980Z,1014.45
2017-02-20T06:23:53.734Z,1014.4
2017-02-20T06:25:03.060Z,1014.43
2017-02-20T06:26:11.987Z,1014.41
2017-02-20T06:27:20.930Z,1014.34
2017-02-20T06:28:29.877Z,1014.38
2017-02-20T06:29:39.610Z,1014.37
2017-02-20T06:30:48.934Z,1014.33
2017-02-20T06:31:57.848Z,1014.29
2017-02-20T06:33:07.612Z,1014.27
2017-02-20T06:34:16.955Z,1014.25
2017-02-20T06:35:26.745Z,1014.24
2017-02-20T06:36:36.082Z,1014.28
2017-02-20T06:37:45.816Z,1014.29
2017-02-20T06:38:56.371Z,1014.23
2017-02-20T06:40:06.105Z,1014.25
2017-02-20T06:41:15.315Z,1014.3
2017-02-20T06:42:24.233Z,1014.28
2017-02-20T06:43:33.163Z,1014.21
2017-02-20T06:44:42.496Z,1014.26
2017-02-20T06:45:52.226Z,1014.16
2017-02-20T06:47:02.004Z,1014.13
2017-02-20T06:48:10.951Z,1014.05
2017-02-20T06:49:20.354Z,1014.12
2017-02-20T06:50:29.281Z,1014.05
2017-02-20T06:51:39.425Z,1014.06
2017-02-20T06:52:49.216Z,1014.04
2017-02-20T06:53:58.950Z,1014.06
2017-02-20T06:55:08.690Z,1014.02
2017-02-20T06:56:18.881Z,1013.96
2017-02-20T06:57:28.621Z,1013.95
2017-02-20T06:58:38.459Z,1013.98
2017-02-20T06:59:48.187Z,1013.96
2017-02-20T07:00:57.926Z,1013.95
2017-02-20T07:02:07.652Z,1013.92
2017-02-20T07:03:17.815Z,1013.9
2017-02-20T07:04:27.555Z,1013.88
2017-02-20T07:05:37.282Z,1013.82
2017-02-20T07:06:46.220Z,1013.83
2017-02-20T07:07:55.540Z,1013.81
2017-02-20T07:09:04.881Z,1013.66
2017-02-20T07:10:13.807Z,1013.7
2017-02-20T07:11:22.745Z,1013.71
2017-02-20T07:12:32.069Z,1013.62
2017-02-20T07:13:41.398Z,1013.69
2017-02-20T07:14:51.146Z,1013.67
2017-02-20T07:16:00.067Z,1013.73
2017-02-20T07:17:10.223Z,1013.7
2017-02-20T07:18:19.563Z,1013.75
2017-02-20T07:19:28.903Z,1013.68
2017-02-20T07:20:38.656Z,1013.69
2017-02-20T07:21:48.797Z,1013.66
2017-02-20T07:22:58.529Z,1013.71
2017-02-20T07:24:08.272Z,1013.7
2017-02-20T07:25:17.607Z,1013.69
2017-02-20T07:26:27.355Z,1013.62
2017-02-20T07:27:36.687Z,1013.64
2017-02-20T07:28:45.612Z,1013.71
2017-02-20T07:29:55.217Z,1013.71
2017-02-20T07:31:04.954Z,1013.74
2017-02-20T07:32:15.132Z,1013.73
2017-02-20T07:33:24.862Z,1013.8
2017-02-20T07:34:34.206Z,1013.78
2017-02-20T07:35:43.995Z,1013.72
2017-02-20T07:36:53.321Z,1013.74
2017-02-20T07:38:03.087Z,1013.79
2017-02-20T07:39:12.053Z,1013.73
2017-02-20T07:40:21.375Z,1013.7
2017-02-20T07:41:30.853Z,1013.73
2017-02-20T07:42:40.192Z,1013.7
2017-02-20T07:43:49.969Z,1013.7
2017-02-20T07:45:00.199Z,1013.66
2017-02-20T07:46:09.967Z,1013.82
2017-02-20T07:47:19.791Z,1013.63
2017-02-20T07:48:28.735Z,1013.62
2017-02-20T07:49:37.666Z,1013.6
2017-02-20T07:50:47.004Z,1013.67
2017-02-20T07:51:56.747Z,1013.67
2017-02-20T07:53:06.941Z,1013.6
2017-02-20T07:54:17.102Z,1013.72
2017-02-20T07:55:27.404Z,1013.65
2017-02-20T07:56:38.241Z,1013.66
2017-02-20T07:57:49.783Z,1013.61
2017-02-20T07:59:01.186Z,1013.6
2017-02-20T08:00:12.559Z,1013.62
2017-02-20T08:01:21.506Z,1013.6
2017-02-20T08:02:31.232Z,1013.64
2017-02-20T08:03:40.968Z,1013.65
2017-02-20T08:04:50.803Z,1013.5
2017-02-20T08:06:00.546Z,1013.58
2017-02-20T08:07:09.885Z,1013.56
2017-02-20T08:08:19.234Z,1013.44
2017-02-20T08:09:28.974Z,1013.57
2017-02-20T08:10:38.731Z,1013.53
2017-02-20T08:11:47.652Z,1013.51
2017-02-20T08:12:56.580Z,1013.53
2017-02-20T08:14:05.498Z,1013.38
2017-02-20T08:15:14.854Z,1013.35
2017-02-20T08:16:24.481Z,1013.28
2017-02-20T08:17:34.217Z,1013.31
2017-02-20T08:18:43.161Z,1013.15
2017-02-20T08:19:52.089Z,1013.26
2017-02-20T08:21:01.844Z,1013.17
2017-02-20T08:22:12.448Z,1013.19
2017-02-20T08:23:22.177Z,1013.17
2017-02-20T08:24:31.115Z,1013.23
2017-02-20T08:25:41.674Z,1013.19
2017-02-20T08:26:50.609Z,1013.14
2017-02-20T08:28:00.510Z,1013.14
2017-02-20T08:29:09.873Z,1013.13
2017-02-20T08:30:20.053Z,1013.1
2017-02-20T08:31:29.270Z,1013.05
2017-02-20T08:32:41.078Z,1013.08
2017-02-20T08:33:52.325Z,1013.11
2017-02-20T08:35:05.938Z,1013.05
2017-02-20T08:36:20.649Z,1013.14
2017-02-20T08:37:34.433Z,1013.1
2017-02-20T08:38:47.297Z,1013.06
2017-02-20T08:40:00.485Z,1013.04
2017-02-20T08:41:14.964Z,1012.96
2017-02-20T08:42:29.906Z,1012.98
2017-02-20T08:43:44.337Z,1012.99
2017-02-20T08:44:56.052Z,1012.96
2017-02-20T08:46:08.744Z,1012.95
2017-02-20T08:47:22.881Z,1013
2017-02-20T08:48:36.275Z,1012.89
2017-02-20T08:49:50.284Z,1012.94
2017-02-20T08:51:04.287Z,1012.91
2017-02-20T08:52:18.304Z,1012.87
2017-02-20T08:53:32.561Z,1012.97
2017-02-20T08:54:46.988Z,1012.86
2017-02-20T08:56:00.511Z,1012.84
2017-02-20T08:57:14.088Z,1012.77
2017-02-20T08:58:27.464Z,1012.81
2017-02-20T08:59:40.775Z,1012.83
2017-02-20T09:00:54.007Z,1012.69
2017-02-20T09:02:07.724Z,1012.64
2017-02-20T09:03:20.660Z,1012.73
2017-02-20T09:04:35.438Z,1012.61
2017-02-20T09:05:49.242Z,1012.53
2017-02-20T09:07:02.483Z,1012.53
2017-02-20T09:08:15.340Z,1012.51
2017-02-20T09:09:28.711Z,1012.46
2017-02-20T09:10:38.923Z,1012.42
2017-02-20T09:11:50.176Z,1012.39
2017-02-20T09:13:00.347Z,1012.47
2017-02-20T09:14:10.366Z,1012.46
2017-02-20T09:15:21.763Z,1012.45
2017-02-20T09:16:32.274Z,1012.4
2017-02-20T09:17:43.085Z,1012.54
2017-02-20T09:18:53.753Z,1012.46
2017-02-20T09:20:04.474Z,1012.46
2017-02-20T09:21:15.488Z,1012.41
2017-02-20T09:22:25.927Z,1012.48
2017-02-20T09:23:36.954Z,1012.53
2017-02-20T09:24:47.069Z,1012.46
2017-02-20T09:25:59.093Z,1012.51
2017-02-20T09:27:11.182Z,1012.62
2017-02-20T09:28:21.785Z,1012.61
2017-02-20T09:29:33.272Z,1012.57
2017-02-20T09:30:43.705Z,1012.53
2017-02-20T09:31:53.037Z,1012.49
2017-02-20T09:33:01.953Z,1012.46
2017-02-20T09:34:11.435Z,1012.48
2017-02-20T09:35:20.349Z,1012.51
2017-02-20T09:36:29.264Z,1012.54
2017-02-20T09:37:38.577Z,1012.5
2017-02-20T09:38:48.712Z,1012.55
2017-02-20T09:39:57.963Z,1012.48
2017-02-20T09:41:07.283Z,1012.45
2017-02-20T09:42:16.600Z,1012.4
2017-02-20T09:43:25.511Z,1012.31
2017-02-20T09:44:34.428Z,1012.52
2017-02-20T09:45:44.327Z,1012.48
2017-02-20T09:46:53.243Z,1012.28
2017-02-20T09:48:02.578Z,1012.3
2017-02-20T09:49:11.902Z,1012.24
2017-02-20T09:50:21.628Z,1012.27
2017-02-20T09:51:31.117Z,1012.16
2017-02-20T09:52:40.459Z,1012.18
2017-02-20T09:53:49.783Z,1012.16
2017-02-20T09:54:59.117Z,1012.15
2017-02-20T09:56:08.048Z,1012.14
2017-02-20T09:57:17.492Z,1012.24
2017-02-20T09:58:27.251Z,1012.31
2017-02-20T09:59:37.399Z,1012.22
2017-02-20T10:00:47.545Z,1012.23
2017-02-20T10:01:57.690Z,1012.15
2017-02-20T10:03:07.551Z,1012.12
2017-02-20T10:04:17.282Z,1012.09
2017-02-20T10:05:27.024Z,1012.07
2017-02-20T10:06:35.942Z,1012.09
2017-02-20T10:07:44.873Z,1012.13
2017-02-20T10:08:54.765Z,1012.06
2017-02-20T10:10:03.681Z,1012.1
2017-02-20T10:11:12.598Z,1012.1
2017-02-20T10:12:21.934Z,1012.11
2017-02-20T10:13:31.293Z,1012.06
2017-02-20T10:14:40.682Z,1012.04
2017-02-20T10:15:50.413Z,1012.01
2017-02-20T10:16:59.343Z,1012.13
2017-02-20T10:18:08.673Z,1012.09
2017-02-20T10:19:18.410Z,1012.12
2017-02-20T10:20:28.850Z,1012.13
2017-02-20T10:21:37.793Z,1012.12
2017-02-20T10:22:46.718Z,1012.15
2017-02-20T10:23:56.466Z,1012.2
2017-02-20T10:25:05.433Z,1012.06
2017-02-20T10:26:15.727Z,1012.09
2017-02-20T10:27:24.662Z,1012.1
2017-02-20T10:28:33.991Z,1012.04
2017-02-20T10:29:43.323Z,1012.1
2017-02-20T10:30:53.079Z,1012.14
2017-02-20T10:32:02.194Z,1012.05
2017-02-20T10:33:11.512Z,1012.07
2017-02-20T10:34:20.844Z,1012.09
2017-02-20T10:35:30.184Z,1012.03
2017-02-20T10:36:39.540Z,1012.08
2017-02-20T10:37:49.416Z,1011.98
2017-02-20T10:38:58.349Z,1012.03
2017-02-20T10:40:08.088Z,1011.99
2017-02-20T10:41:17.818Z,1011.94
2017-02-20T10:42:26.734Z,1011.88
2017-02-20T10:43:36.583Z,1011.93
2017-02-20T10:44:45.916Z,1011.89
2017-02-20T10:45:55.650Z,1011.9
2017-02-20T10:47:04.984Z,1011.95
2017-02-20T10:48:14.750Z,1011.82
2017-02-20T10:49:24.701Z,1011.76
2017-02-20T10:50:33.637Z,1011.81
2017-02-20T10:51:43.400Z,1011.75
2017-02-20T10:52:52.739Z,1011.73
2017-02-20T10:54:02.469Z,1011.78
2017-02-20T10:55:11.843Z,1011.71
2017-02-20T10:56:21.188Z,1011.77
2017-02-20T10:57:30.515Z,1011.79
2017-02-20T10:58:39.850Z,1011.69
2017-02-20T10:59:49.185Z,1011.72
2017-02-20T11:00:58.523Z,1011.69
2017-02-20T11:02:07.480Z,1011.67
2017-02-20T11:03:16.415Z,1011.65
2017-02-20T11:04:25.734Z,1011.62
2017-02-20T11:05:34.658Z,1011.65
2017-02-20T11:06:43.918Z,1011.63
2017-02-20T11:07:52.839Z,1011.59
2017-02-20T11:09:02.581Z,1011.54
2017-02-20T11:10:11.495Z,1011.58
2017-02-20T11:11:20.840Z,1011.57
2017-02-20T11:12:30.162Z,1011.56
2017-02-20T11:13:39.903Z,1011.44
2017-02-20T11:14:49.648Z,1011.51
2017-02-20T11:15:59.399Z,1011.39
2017-02-20T11:17:09.139Z,1011.51
2017-02-20T11:18:18.064Z,1011.4
2017-02-20T11:19:27.406Z,1011.32
2017-02-20T11:20:36.742Z,1011.27
2017-02-20T11:21:45.670Z,1011.22
2017-02-20T11:22:55.819Z,1011.23
2017-02-20T11:24:05.332Z,1011.19
2017-02-20T11:25:14.244Z,1011.15
2017-02-20T11:26:23.155Z,1011.1
2017-02-20T11:27:32.066Z,1011.12
2017-02-20T11:28:41.390Z,1011.06
2017-02-20T11:29:50.422Z,1011.01
2017-02-20T11:31:00.585Z,1011.06
2017-02-20T11:32:10.755Z,1011.1
2017-02-20T11:33:20.077Z,1010.98
2017-02-20T11:34:30.210Z,1011.02
2017-02-20T11:35:39.221Z,1011.06
2017-02-20T11:36:48.545Z,1010.91
2017-02-20T11:37:58.273Z,1010.88
2017-02-20T11:39:08.064Z,1010.85
2017-02-20T11:40:17.791Z,1010.86
2017-02-20T11:41:26.708Z,1010.85
2017-02-20T11:42:36.060Z,1010.91
2017-02-20T11:43:44.978Z,1010.9
2017-02-20T11:44:54.709Z,1010.89
2017-02-20T11:46:04.446Z,1010.92
2017-02-20T11:47:13.664Z,1011.05
2017-02-20T11:48:22.588Z,1010.93
2017-02-20T11:49:32.352Z,1011.06
2017-02-20T11:50:41.282Z,1010.95
2017-02-20T11:51:50.618Z,1010.87
2017-02-20T11:52:59.939Z,1010.89
2017-02-20T11:54:09.694Z,1010.93
2017-02-20T11:55:18.610Z,1011
2017-02-20T11:56:28.357Z,1010.77
2017-02-20T11:57:38.090Z,1010.77
2017-02-20T11:58:48.006Z,1010.7
2017-02-20T11:59:57.341Z,1010.62
2017-02-20T12:01:06.798Z,1010.61
2017-02-20T12:02:16.155Z,1010.64
2017-02-20T12:03:25.185Z,1010.54
2017-02-20T12:04:34.967Z,1010.61
2017-02-20T12:05:43.891Z,1010.63
2017-02-20T12:06:53.216Z,1010.59
2017-02-20T12:08:02.549Z,1010.54
2017-02-20T12:09:11.480Z,1010.58
2017-02-20T12:10:21.312Z,1010.61
2017-02-20T12:11:30.647Z,1010.57
2017-02-20T12:12:39.568Z,1010.53
2017-02-20T12:13:48.896Z,1010.55
2017-02-20T12:14:58.633Z,1010.48
2017-02-20T12:16:07.737Z,1010.5
2017-02-20T12:17:17.494Z,1010.56
2017-02-20T12:18:26.943Z,1010.45
2017-02-20T12:19:36.684Z,1010.53
2017-02-20T12:20:46.431Z,1010.56
2017-02-20T12:21:56.323Z,1010.38
2017-02-20T12:23:05.673Z,1010.37
2017-02-20T12:24:14.997Z,1010.43
2017-02-20T12:25:23.982Z,1010.34
2017-02-20T12:26:34.164Z,1010.31
2017-02-20T12:27:43.155Z,1010.29
2017-02-20T12:28:52.094Z,1010.27
2017-02-20T12:30:02.643Z,1010.22
2017-02-20T12:31:12.390Z,1010.16
2017-02-20T12:32:22.149Z,1010.19
2017-02-20T12:33:31.114Z,1010.17
2017-02-20T12:34:40.461Z,1010.19
2017-02-20T12:35:49.399Z,1010.12
2017-02-20T12:36:58.764Z,1010.15
2017-02-20T12:38:07.703Z,1010.16
2017-02-20T12:39:17.245Z,1010.25
2017-02-20T12:40:26.584Z,1010.31
2017-02-20T12:41:35.908Z,1010.32
2017-02-20T12:42:45.647Z,1010.34
2017-02-20T12:43:54.974Z,1010.33
2017-02-20T12:45:04.915Z,1010.47
2017-02-20T12:46:14.249Z,1010.37
2017-02-20T12:47:24.713Z,1010.4
2017-02-20T12:48:34.038Z,1010.28
2017-02-20T12:49:44.232Z,1010.34
2017-02-20T12:50:53.921Z,1010.16
2017-02-20T12:52:02.845Z,1010.21
2017-02-20T12:53:12.172Z,1010.17
2017-02-20T12:54:21.561Z,1010.17
2017-02-20T12:55:30.886Z,1010.07
2017-02-20T12:56:40.526Z,1010.1
2017-02-20T12:57:49.452Z,1010.06
2017-02-20T12:58:58.810Z,1010.06
2017-02-20T13:00:08.563Z,1009.98
2017-02-20T13:01:17.480Z,1009.92
2017-02-20T13:02:26.812Z,1010.03
2017-02-20T13:03:35.772Z,1010.01
2017-02-20T13:04:44.729Z,1010.03
2017-02-20T13:05:54.492Z,1009.99
2017-02-20T13:07:03.829Z,1010.06
2017-02-20T13:08:13.294Z,1010.05
2017-02-20T13:09:22.652Z,1009.99
2017-02-20T13:10:32.377Z,1009.96
2017-02-20T13:11:42.531Z,1009.95
2017-02-20T13:12:52.319Z,1009.9
2017-02-20T13:14:02.787Z,1009.81
2017-02-20T13:15:12.180Z,1009.87
2017-02-20T13:16:21.934Z,1009.91
2017-02-20T13:17:31.269Z,1009.91
2017-02-20T13:18:41.012Z,1009.9
2017-02-20T13:19:50.117Z,1009.93
2017-02-20T13:20:59.862Z,1009.92
2017-02-20T13:22:10.069Z,1009.87
2017-02-20T13:23:19.425Z,1009.88
2017-02-20T13:24:29.175Z,1009.96
2017-02-20T13:25:39.088Z,1009.87
2017-02-20T13:26:48.029Z,1009.92
2017-02-20T13:27:57.359Z,1009.87
2017-02-20T13:29:06.743Z,1009.79
2017-02-20T13:30:16.122Z,1009.78
2017-02-20T13:31:26.012Z,1009.79
2017-02-20T13:32:35.346Z,1009.73
2017-02-20T13:33:44.714Z,1009.65
2017-02-20T13:34:53.628Z,1009.71
2017-02-20T13:36:03.831Z,1009.74
2017-02-20T13:37:13.311Z,1009.71
2017-02-20T13:38:22.248Z,1009.67
2017-02-20T13:39:32.411Z,1009.65
2017-02-20T13:40:42.577Z,1009.64
2017-02-20T13:41:51.504Z,1009.53
2017-02-20T13:43:01.538Z,1009.6
2017-02-20T13:44:10.878Z,1009.51
2017-02-20T13:45:21.030Z,1009.53
2017-02-20T13:46:31.190Z,1009.52
2017-02-20T13:47:40.535Z,1009.52
2017-02-20T13:48:49.915Z,1009.49
2017-02-20T13:49:59.247Z,1009.5
2017-02-20T13:51:09.411Z,1009.55
2017-02-20T13:52:18.340Z,1009.47
2017-02-20T13:53:28.117Z,1009.51
2017-02-20T13:54:38.021Z,1009.53
2017-02-20T13:55:47.776Z,1009.52
2017-02-20T13:56:57.110Z,1009.55
2017-02-20T13:58:06.437Z,1009.65
2017-02-20T13:59:15.768Z,1009.52
2017-02-20T14:00:25.139Z,1009.49
2017-02-20T14:01:34.063Z,1009.52
2017-02-20T14:02:43.410Z,1009.45
2017-02-20T14:03:53.158Z,1009.47
2017-02-20T14:05:02.488Z,1009.43
2017-02-20T14:06:11.974Z,1009.52